sensor_id;sensor_type;location;lat;lon;timestamp;pressure;altitude;pressure_sealevel;temperature;humidity
36692;BME280;22678;52.052;4.242;2024-01-30T00:01:41;102544.63;;;9.05;100.00
36692;BME280;22678;52.052;4.242;2024-01-30T00:04:06;102557.91;;;9.11;100.00
36692;BME280;22678;52.052;4.242;2024-01-30T00:06:32;102561.50;;;9.15;100.00
36692;BME280;22678;52.052;4.242;2024-01-30T00:08:57;102547.41;;;9.11;100.00
36692;BME280;22678;52.052;4.242;2024-01-30T00:11:23;102554.63;;;9.20;100.00
36692;BME280;22678;52.052;4.242;2024-01-30T00:13:51;102544.88;;;9.16;100.00
36692;BME280;22678;52.052;4.242;2024-01-30T00:16:23;102548.56;;;9.22;100.00
36692;BME280;22678;52.052;4.242;2024-01-30T00:18:51;102551.19;;;9.22;100.00
36692;BME280;22678;52.052;4.242;2024-01-30T00:21:18;102561.72;;;9.24;100.00
36692;BME280;22678;52.052;4.242;2024-01-30T00:23:43;102520.88;;;9.00;100.00
36692;BME280;22678;52.052;4.242;2024-01-30T00:26:09;102571.34;;;9.23;100.00
36692;BME280;22678;52.052;4.242;2024-01-30T00:28:34;102573.09;;;9.24;100.00
36692;BME280;22678;52.052;4.242;2024-01-30T00:30:59;102569.56;;;9.22;100.00
36692;BME280;22678;52.052;4.242;2024-01-30T00:33:25;102555.44;;;9.17;100.00
36692;BME280;22678;52.052;4.242;2024-01-30T00:35:50;102559.81;;;9.18;100.00
36692;BME280;22678;52.052;4.242;2024-01-30T00:38:16;102547.69;;;9.22;100.00
36692;BME280;22678;52.052;4.242;2024-01-30T00:40:41;102558.09;;;9.19;100.00
36692;BME280;22678;52.052;4.242;2024-01-30T00:43:07;102558.09;;;9.19;100.00
36692;BME280;22678;52.052;4.242;2024-01-30T00:45:33;102562.53;;;9.21;100.00
36692;BME280;22678;52.052;4.242;2024-01-30T00:47:59;102558.09;;;9.19;100.00
36692;BME280;22678;52.052;4.242;2024-01-30T00:50:24;102558.16;;;9.20;100.00
36692;BME280;22678;52.052;4.242;2024-01-30T00:52:49;102551.06;;;9.18;100.00
36692;BME280;22678;52.052;4.242;2024-01-30T00:55:15;102550.19;;;9.17;100.00
36692;BME280;22678;52.052;4.242;2024-01-30T00:57:40;102558.91;;;9.16;100.00
36692;BME280;22678;52.052;4.242;2024-01-30T01:00:06;102557.28;;;9.21;100.00
36692;BME280;22678;52.052;4.242;2024-01-30T01:02:34;102545.03;;;9.20;100.00
36692;BME280;22678;52.052;4.242;2024-01-30T01:04:59;102537.97;;;9.19;100.00
36692;BME280;22678;52.052;4.242;2024-01-30T01:07:25;102544.16;;;9.21;100.00
36692;BME280;22678;52.052;4.242;2024-01-30T01:09:50;102544.16;;;9.21;100.00
36692;BME280;22678;52.052;4.242;2024-01-30T01:12:15;102519.53;;;9.16;100.00
36692;BME280;22678;52.052;4.242;2024-01-30T01:14:41;102522.25;;;9.19;100.00
36692;BME280;22678;52.052;4.242;2024-01-30T01:17:07;102518.84;;;9.23;100.00
36692;BME280;22678;52.052;4.242;2024-01-30T01:19:32;102512.72;;;9.24;100.00
36692;BME280;22678;52.052;4.242;2024-01-30T01:21:58;102488.16;;;9.21;100.00
36692;BME280;22678;52.052;4.242;2024-01-30T01:24:23;102506.50;;;9.19;100.00
36692;BME280;22678;52.052;4.242;2024-01-30T01:26:49;102518.91;;;9.26;100.00
36692;BME280;22678;52.052;4.242;2024-01-30T01:29:14;102526.81;;;9.28;100.00
36692;BME280;22678;52.052;4.242;2024-01-30T01:31:41;102514.53;;;9.27;100.00
36692;BME280;22678;52.052;4.242;2024-01-30T01:34:12;102510.91;;;9.20;100.00
36692;BME280;22678;52.052;4.242;2024-01-30T01:36:39;102532.88;;;9.25;100.00
36692;BME280;22678;52.052;4.242;2024-01-30T01:39:05;102522.38;;;9.25;100.00
36692;BME280;22678;52.052;4.242;2024-01-30T01:41:31;102512.72;;;9.24;100.00
36692;BME280;22678;52.052;4.242;2024-01-30T01:43:57;102494.88;;;9.09;100.00
36692;BME280;22678;52.052;4.242;2024-01-30T01:46:22;102502.00;;;9.15;100.00
36692;BME280;22678;52.052;4.242;2024-01-30T01:48:48;102517.88;;;9.20;100.00
36692;BME280;22678;52.052;4.242;2024-01-30T01:51:14;102524.94;;;9.22;100.00
36692;BME280;22678;52.052;4.242;2024-01-30T01:53:40;102524.88;;;9.19;100.00
36692;BME280;22678;52.052;4.242;2024-01-30T01:56:06;102525.78;;;9.21;100.00
36692;BME280;22678;52.052;4.242;2024-01-30T01:58:32;102508.28;;;9.20;100.00
36692;BME280;22678;52.052;4.242;2024-01-30T02:00:59;102513.53;;;9.20;100.00
36692;BME280;22678;52.052;4.242;2024-01-30T02:03:24;102511.81;;;9.22;100.00
36692;BME280;22678;52.052;4.242;2024-01-30T02:05:53;102512.66;;;9.21;100.00
36692;BME280;22678;52.052;4.242;2024-01-30T02:08:19;102503.78;;;9.16;100.00
36692;BME280;22678;52.052;4.242;2024-01-30T02:10:44;102515.19;;;9.18;100.00
36692;BME280;22678;52.052;4.242;2024-01-30T02:13:09;102516.06;;;9.17;100.00
36692;BME280;22678;52.052;4.242;2024-01-30T02:15:35;102488.53;;;9.00;100.00
36692;BME280;22678;52.052;4.242;2024-01-30T02:18:00;102517.88;;;9.20;100.00
36692;BME280;22678;52.052;4.242;2024-01-30T02:20:28;102498.47;;;9.13;100.00
36692;BME280;22678;52.052;4.242;2024-01-30T02:22:55;102498.44;;;9.11;100.00
36692;BME280;22678;52.052;4.242;2024-01-30T02:25:33;102513.44;;;9.17;100.00
36692;BME280;22678;52.052;4.242;2024-01-30T02:27:58;102508.19;;;9.17;100.00
36692;BME280;22678;52.052;4.242;2024-01-30T02:30:24;102504.63;;;9.15;100.00
36692;BME280;22678;52.052;4.242;2024-01-30T02:32:49;102487.72;;;9.04;100.00
36692;BME280;22678;52.052;4.242;2024-01-30T02:35:14;102484.44;;;9.12;100.00
36692;BME280;22678;52.052;4.242;2024-01-30T02:37:40;102471.13;;;9.05;100.00
36692;BME280;22678;52.052;4.242;2024-01-30T02:40:06;102488.94;;;9.18;100.00
36692;BME280;22678;52.052;4.242;2024-01-30T02:42:31;102484.56;;;9.17;100.00
36692;BME280;22678;52.052;4.242;2024-01-30T02:44:56;102470.47;;;9.14;100.00
36692;BME280;22678;52.052;4.242;2024-01-30T02:47:22;102463.50;;;9.16;100.00
36692;BME280;22678;52.052;4.242;2024-01-30T02:49:47;102482.00;;;9.19;100.00
36692;BME280;22678;52.052;4.242;2024-01-30T02:52:12;102475.78;;;9.17;100.00
36692;BME280;22678;52.052;4.242;2024-01-30T02:54:38;102476.59;;;9.14;100.00
36692;BME280;22678;52.052;4.242;2024-01-30T02:57:03;102466.91;;;9.10;100.00
36692;BME280;22678;52.052;4.242;2024-01-30T02:59:28;102468.69;;;9.12;100.00
36692;BME280;22678;52.052;4.242;2024-01-30T03:01:54;102471.28;;;9.11;100.00
36692;BME280;22678;52.052;4.242;2024-01-30T03:04:19;102457.03;;;9.00;100.00
36692;BME280;22678;52.052;4.242;2024-01-30T03:06:45;102480.09;;;9.13;100.00
36692;BME280;22678;52.052;4.242;2024-01-30T03:09:12;102480.94;;;9.12;100.00
36692;BME280;22678;52.052;4.242;2024-01-30T03:11:37;102476.53;;;9.11;100.00
36692;BME280;22678;52.052;4.242;2024-01-30T03:14:02;102465.88;;;9.05;100.00
36692;BME280;22678;52.052;4.242;2024-01-30T03:16:29;102470.41;;;9.10;100.00
36692;BME280;22678;52.052;4.242;2024-01-30T03:18:54;102478.34;;;9.14;100.00
36692;BME280;22678;52.052;4.242;2024-01-30T03:21:20;102476.63;;;9.16;100.00
36692;BME280;22678;52.052;4.242;2024-01-30T03:23:45;102465.13;;;9.09;100.00
36692;BME280;22678;52.052;4.242;2024-01-30T03:26:10;102480.09;;;9.13;100.00
36692;BME280;22678;52.052;4.242;2024-01-30T03:28:37;102474.84;;;9.13;100.00
36692;BME280;22678;52.052;4.242;2024-01-30T03:31:03;102471.44;;;9.17;100.00
36692;BME280;22678;52.052;4.242;2024-01-30T03:33:28;102463.47;;;9.14;100.00
36692;BME280;22678;52.052;4.242;2024-01-30T03:35:53;102448.53;;;9.10;100.00
36692;BME280;22678;52.052;4.242;2024-01-30T03:38:19;102456.50;;;9.15;100.00
36692;BME280;22678;52.052;4.242;2024-01-30T03:40:44;102449.41;;;9.10;100.00
36692;BME280;22678;52.052;4.242;2024-01-30T03:43:09;102457.47;;;9.18;100.00
36692;BME280;22678;52.052;4.242;2024-01-30T03:45:34;102461.06;;;9.22;100.00
36692;BME280;22678;52.052;4.242;2024-01-30T03:48:00;102465.47;;;9.24;100.00
36692;BME280;22678;52.052;4.242;2024-01-30T03:50:25;102457.53;;;9.21;100.00
36692;BME280;22678;52.052;4.242;2024-01-30T03:52:51;102450.53;;;9.20;100.00
36692;BME280;22678;52.052;4.242;2024-01-30T03:55:16;102454.13;;;9.25;100.00
36692;BME280;22678;52.052;4.242;2024-01-30T03:57:41;102444.38;;;9.20;100.00
36692;BME280;22678;52.052;4.242;2024-01-30T04:00:07;102461.16;;;9.26;100.00
36692;BME280;22678;52.052;4.242;2024-01-30T04:02:33;102450.66;;;9.26;100.00
36692;BME280;22678;52.052;4.242;2024-01-30T04:04:58;102450.59;;;9.23;100.00
36692;BME280;22678;52.052;4.242;2024-01-30T04:07:24;102457.66;;;9.27;100.00
36692;BME280;22678;52.052;4.242;2024-01-30T04:09:49;102446.25;;;9.25;100.00
36692;BME280;22678;52.052;4.242;2024-01-30T04:12:14;102441.84;;;9.24;100.00
36692;BME280;22678;52.052;4.242;2024-01-30T04:14:40;102457.81;;;9.34;100.00
36692;BME280;22678;52.052;4.242;2024-01-30T04:17:05;102402.06;;;9.06;100.00
36692;BME280;22678;52.052;4.242;2024-01-30T04:19:30;102440.22;;;9.29;100.00
36692;BME280;22678;52.052;4.242;2024-01-30T04:21:56;102447.31;;;9.34;100.00
36692;BME280;22678;52.052;4.242;2024-01-30T04:24:21;102441.09;;;9.30;100.00
36692;BME280;22678;52.052;4.242;2024-01-30T04:26:46;102422.63;;;9.25;100.00
36692;BME280;22678;52.052;4.242;2024-01-30T04:29:12;102439.41;;;9.32;100.00
36692;BME280;22678;52.052;4.242;2024-01-30T04:31:37;102432.41;;;9.33;100.00
36692;BME280;22678;52.052;4.242;2024-01-30T04:34:03;102429.78;;;9.33;100.00
36692;BME280;22678;52.052;4.242;2024-01-30T04:36:28;102415.66;;;9.27;100.00
36692;BME280;22678;52.052;4.242;2024-01-30T04:38:53;102422.78;;;9.33;100.00
36692;BME280;22678;52.052;4.242;2024-01-30T04:41:18;102419.28;;;9.33;100.00
36692;BME280;22678;52.052;4.242;2024-01-30T04:43:44;102424.59;;;9.36;100.00
36692;BME280;22678;52.052;4.242;2024-01-30T04:46:09;102433.38;;;9.38;100.00
36692;BME280;22678;52.052;4.242;2024-01-30T04:48:34;102434.31;;;9.40;100.00
36692;BME280;22678;52.052;4.242;2024-01-30T04:51:00;102419.34;;;9.36;100.00
36692;BME280;22678;52.052;4.242;2024-01-30T04:53:29;102432.66;;;9.43;100.00
36692;BME280;22678;52.052;4.242;2024-01-30T04:55:54;102426.38;;;9.37;100.00
36692;BME280;22678;52.052;4.242;2024-01-30T04:58:20;102435.31;;;9.45;100.00
36692;BME280;22678;52.052;4.242;2024-01-30T05:00:45;102431.69;;;9.40;100.00
36692;BME280;22678;52.052;4.242;2024-01-30T05:03:13;102428.31;;;9.44;100.00
36692;BME280;22678;52.052;4.242;2024-01-30T05:05:38;102437.16;;;9.49;100.00
36692;BME280;22678;52.052;4.242;2024-01-30T05:08:04;102437.16;;;9.49;100.00
36692;BME280;22678;52.052;4.242;2024-01-30T05:10:29;102435.47;;;9.51;100.00
36692;BME280;22678;52.052;4.242;2024-01-30T05:12:55;102439.91;;;9.55;100.00
36692;BME280;22678;52.052;4.242;2024-01-30T05:15:20;102432.94;;;9.56;100.00
36692;BME280;22678;52.052;4.242;2024-01-30T05:17:46;102431.09;;;9.52;100.00
36692;BME280;22678;52.052;4.242;2024-01-30T05:20:11;102433.75;;;9.53;100.00
36692;BME280;22678;52.052;4.242;2024-01-30T05:22:37;102432.03;;;9.55;100.00
36692;BME280;22678;52.052;4.242;2024-01-30T05:25:04;102417.06;;;9.51;100.00
36692;BME280;22678;52.052;4.242;2024-01-30T05:27:29;102425.94;;;9.56;100.00
36692;BME280;22678;52.052;4.242;2024-01-30T05:29:54;102428.63;;;9.59;100.00
36692;BME280;22678;52.052;4.242;2024-01-30T05:32:20;102389.59;;;9.35;100.00
36692;BME280;22678;52.052;4.242;2024-01-30T05:34:45;102417.13;;;9.54;100.00
36692;BME280;22678;52.052;4.242;2024-01-30T05:37:10;102423.28;;;9.56;100.00
36692;BME280;22678;52.052;4.242;2024-01-30T05:39:39;102415.41;;;9.56;100.00
36692;BME280;22678;52.052;4.242;2024-01-30T05:42:04;102426.06;;;9.62;100.00
36692;BME280;22678;52.052;4.242;2024-01-30T05:44:30;102426.94;;;9.61;100.00
36692;BME280;22678;52.052;4.242;2024-01-30T05:46:56;102434.78;;;9.60;100.00
36692;BME280;22678;52.052;4.242;2024-01-30T05:49:21;102447.06;;;9.62;100.00
36692;BME280;22678;52.052;4.242;2024-01-30T05:51:46;102428.56;;;9.56;100.00
36692;BME280;22678;52.052;4.242;2024-01-30T05:54:12;102447.94;;;9.61;100.00
36692;BME280;22678;52.052;4.242;2024-01-30T05:56:37;102429.44;;;9.57;100.00
36692;BME280;22678;52.052;4.242;2024-01-30T05:59:02;102425.09;;;9.57;100.00
36692;BME280;22678;52.052;4.242;2024-01-30T06:01:28;102428.50;;;9.53;100.00
36692;BME280;22678;52.052;4.242;2024-01-30T06:03:54;102429.41;;;9.55;100.00
36692;BME280;22678;52.052;4.242;2024-01-30T06:06:20;102441.75;;;9.59;100.00
36692;BME280;22678;52.052;4.242;2024-01-30T06:08:45;102449.63;;;9.59;100.00
36692;BME280;22678;52.052;4.242;2024-01-30T06:11:11;102429.31;;;9.51;100.00
36692;BME280;22678;52.052;4.242;2024-01-30T06:13:37;102440.78;;;9.54;100.00
36692;BME280;22678;52.052;4.242;2024-01-30T06:16:02;102446.16;;;9.60;100.00
36692;BME280;22678;52.052;4.242;2024-01-30T06:18:27;102461.06;;;9.61;100.00
36692;BME280;22678;52.052;4.242;2024-01-30T06:20:55;102441.69;;;9.56;100.00
36692;BME280;22678;52.052;4.242;2024-01-30T06:23:20;102455.00;;;9.65;100.00
36692;BME280;22678;52.052;4.242;2024-01-30T06:25:46;102436.41;;;9.55;100.00
36692;BME280;22678;52.052;4.242;2024-01-30T06:28:12;102447.94;;;9.61;100.00
36692;BME280;22678;52.052;4.242;2024-01-30T06:30:37;102447.25;;;9.70;100.00
36692;BME280;22678;52.052;4.242;2024-01-30T06:33:03;102461.28;;;9.72;100.00
36692;BME280;22678;52.052;4.242;2024-01-30T06:35:28;102450.72;;;9.69;100.00
36692;BME280;22678;52.052;4.242;2024-01-30T06:37:54;102445.50;;;9.71;100.00
36692;BME280;22678;52.052;4.242;2024-01-30T06:40:19;102456.16;;;9.78;100.00
36692;BME280;22678;52.052;4.242;2024-01-30T06:42:44;102447.31;;;9.73;100.00
36692;BME280;22678;52.052;4.242;2024-01-30T06:45:10;102448.25;;;9.77;100.00
36692;BME280;22678;52.052;4.242;2024-01-30T06:47:35;102453.66;;;9.85;100.00
36692;BME280;22678;52.052;4.242;2024-01-30T06:50:00;102455.34;;;9.81;100.00
36692;BME280;22678;52.052;4.242;2024-01-30T06:52:27;102452.84;;;9.87;100.00
36692;BME280;22678;52.052;4.242;2024-01-30T06:54:52;102441.38;;;9.82;100.00
36692;BME280;22678;52.052;4.242;2024-01-30T06:57:18;102454.56;;;9.85;100.00
36692;BME280;22678;52.052;4.242;2024-01-30T06:59:43;102450.13;;;9.82;100.00
36692;BME280;22678;52.052;4.242;2024-01-30T07:02:12;102450.13;;;9.82;100.00
36692;BME280;22678;52.052;4.242;2024-01-30T07:04:37;102464.19;;;9.86;100.00
36692;BME280;22678;52.052;4.242;2024-01-30T07:07:03;102459.81;;;9.85;100.00
36692;BME280;22678;52.052;4.242;2024-01-30T07:09:30;102464.19;;;9.86;100.00
36692;BME280;22678;52.052;4.242;2024-01-30T07:11:55;102474.78;;;9.89;100.00
36692;BME280;22678;52.052;4.242;2024-01-30T07:14:23;102473.03;;;9.88;100.00
36692;BME280;22678;52.052;4.242;2024-01-30T07:16:48;102471.25;;;9.89;100.00
36692;BME280;22678;52.052;4.242;2024-01-30T07:19:14;102469.50;;;9.89;100.00
36692;BME280;22678;52.052;4.242;2024-01-30T07:21:39;102481.88;;;9.93;100.00
36692;BME280;22678;52.052;4.242;2024-01-30T07:24:05;102481.03;;;9.94;100.00
36692;BME280;22678;52.052;4.242;2024-01-30T07:26:31;102476.59;;;9.93;100.00
36692;BME280;22678;52.052;4.242;2024-01-30T07:28:56;102488.97;;;9.97;100.00
36692;BME280;22678;52.052;4.242;2024-01-30T07:31:22;102493.34;;;9.97;100.00
36692;BME280;22678;52.052;4.242;2024-01-30T07:33:48;102496.94;;;10.02;100.00
36692;BME280;22678;52.052;4.242;2024-01-30T07:36:14;102498.81;;;10.08;100.00
36692;BME280;22678;52.052;4.242;2024-01-30T07:38:39;102505.78;;;10.06;100.00
36692;BME280;22678;52.052;4.242;2024-01-30T07:41:05;102504.91;;;10.07;100.00
36692;BME280;22678;52.052;4.242;2024-01-30T07:43:30;102506.66;;;10.06;100.00
36692;BME280;22678;52.052;4.242;2024-01-30T07:45:56;102512.00;;;10.11;100.00
36692;BME280;22678;52.052;4.242;2024-01-30T07:48:21;102502.44;;;10.13;100.00
36692;BME280;22678;52.052;4.242;2024-01-30T07:50:46;102490.94;;;10.08;100.00
36692;BME280;22678;52.052;4.242;2024-01-30T07:53:12;102515.66;;;10.16;100.00
36692;BME280;22678;52.052;4.242;2024-01-30T07:55:37;102520.06;;;10.18;100.00
36692;BME280;22678;52.052;4.242;2024-01-30T07:58:03;102521.06;;;10.25;100.00
36692;BME280;22678;52.052;4.242;2024-01-30T08:00:29;102508.66;;;10.18;100.00
36692;BME280;22678;52.052;4.242;2024-01-30T08:02:55;102514.09;;;10.27;100.00
36692;BME280;22678;52.052;4.242;2024-01-30T08:05:21;102508.72;;;10.21;100.00
36692;BME280;22678;52.052;4.242;2024-01-30T08:07:48;102514.03;;;10.24;100.00
36692;BME280;22678;52.052;4.242;2024-01-30T08:10:14;102532.59;;;10.32;100.00
36692;BME280;22678;52.052;4.242;2024-01-30T08:12:39;102532.69;;;10.33;100.00
36692;BME280;22678;52.052;4.242;2024-01-30T08:15:05;102539.69;;;10.34;100.00
36692;BME280;22678;52.052;4.242;2024-01-30T08:17:30;102555.53;;;10.38;100.00
36692;BME280;22678;52.052;4.242;2024-01-30T08:19:56;102530.75;;;10.26;100.00
36692;BME280;22678;52.052;4.242;2024-01-30T08:22:21;102544.16;;;10.39;100.00
36692;BME280;22678;52.052;4.242;2024-01-30T08:24:46;102527.28;;;10.30;100.00
36692;BME280;22678;52.052;4.242;2024-01-30T08:27:12;102556.34;;;10.33;100.00
36692;BME280;22678;52.052;4.242;2024-01-30T08:29:37;102547.44;;;10.28;100.00
36692;BME280;22678;52.052;4.242;2024-01-30T08:32:05;102549.13;;;10.25;100.00
36692;BME280;22678;52.052;4.242;2024-01-30T08:34:31;102556.16;;;10.27;100.00
36692;BME280;22678;52.052;4.242;2024-01-30T08:36:57;102527.97;;;10.20;100.00
36692;BME280;22678;52.052;4.242;2024-01-30T08:39:22;102529.75;;;10.21;100.00
36692;BME280;22678;52.052;4.242;2024-01-30T08:41:47;102536.78;;;10.22;100.00
36692;BME280;22678;52.052;4.242;2024-01-30T08:44:13;102547.31;;;10.22;100.00
36692;BME280;22678;52.052;4.242;2024-01-30T08:46:38;102542.09;;;10.25;100.00
36692;BME280;22678;52.052;4.242;2024-01-30T08:49:04;102555.22;;;10.24;100.00
36692;BME280;22678;52.052;4.242;2024-01-30T08:51:30;102549.00;;;10.20;100.00
36692;BME280;22678;52.052;4.242;2024-01-30T08:53:55;102554.34;;;10.23;100.00
36692;BME280;22678;52.052;4.242;2024-01-30T08:56:21;102562.16;;;10.20;100.00
36692;BME280;22678;52.052;4.242;2024-01-30T08:58:46;102548.03;;;10.15;100.00
36692;BME280;22678;52.052;4.242;2024-01-30T09:01:11;102566.50;;;10.18;100.00
36692;BME280;22678;52.052;4.242;2024-01-30T09:03:37;102574.41;;;10.20;100.00
36692;BME280;22678;52.052;4.242;2024-01-30T09:06:08;102575.22;;;10.17;100.00
36692;BME280;22678;52.052;4.242;2024-01-30T09:08:33;102575.03;;;10.08;100.00
36692;BME280;22678;52.052;4.242;2024-01-30T09:11:08;102580.19;;;10.03;100.00
36692;BME280;22678;52.052;4.242;2024-01-30T09:13:33;102582.03;;;10.06;100.00
36692;BME280;22678;52.052;4.242;2024-01-30T09:15:58;102609.28;;;10.11;100.00
36692;BME280;22678;52.052;4.242;2024-01-30T09:18:23;102604.72;;;10.04;100.00
36692;BME280;22678;52.052;4.242;2024-01-30T09:20:49;102601.13;;;9.98;100.00
36692;BME280;22678;52.052;4.242;2024-01-30T09:23:14;102599.38;;;9.99;100.00
36692;BME280;22678;52.052;4.242;2024-01-30T09:25:39;102593.06;;;9.91;99.84
36692;BME280;22678;52.052;4.242;2024-01-30T09:28:05;102568.41;;;9.84;99.42
36692;BME280;22678;52.052;4.242;2024-01-30T09:30:30;102588.50;;;9.82;99.08
36692;BME280;22678;52.052;4.242;2024-01-30T09:32:56;102598.81;;;9.74;98.98
36692;BME280;22678;52.052;4.242;2024-01-30T09:35:21;102640.94;;;9.79;98.79
36692;BME280;22678;52.052;4.242;2024-01-30T09:37:46;102619.88;;;9.76;99.17
36692;BME280;22678;52.052;4.242;2024-01-30T09:40:12;102589.63;;;9.57;98.40
36692;BME280;22678;52.052;4.242;2024-01-30T09:42:37;102625.97;;;9.73;98.53
36692;BME280;22678;52.052;4.242;2024-01-30T09:45:04;102626.91;;;9.77;98.36
36692;BME280;22678;52.052;4.242;2024-01-30T09:47:40;102623.25;;;9.70;98.45
36692;BME280;22678;52.052;4.242;2024-01-30T09:50:10;102629.41;;;9.71;98.81
36692;BME280;22678;52.052;4.242;2024-01-30T09:52:36;102626.69;;;9.68;98.65
36692;BME280;22678;52.052;4.242;2024-01-30T09:55:02;102593.03;;;9.51;98.55
36692;BME280;22678;52.052;4.242;2024-01-30T09:57:28;102631.06;;;9.69;98.32
36692;BME280;22678;52.052;4.242;2024-01-30T09:59:53;102646.00;;;9.70;98.19
36692;BME280;22678;52.052;4.242;2024-01-30T10:02:22;102630.22;;;9.70;98.41
36692;BME280;22678;52.052;4.242;2024-01-30T10:04:51;102631.94;;;9.68;98.78
36692;BME280;22678;52.052;4.242;2024-01-30T10:07:18;102642.31;;;9.61;99.33
36692;BME280;22678;52.052;4.242;2024-01-30T10:09:44;102625.56;;;9.58;99.87
36692;BME280;22678;52.052;4.242;2024-01-30T10:12:09;102643.03;;;9.56;100.00
36692;BME280;22678;52.052;4.242;2024-01-30T10:14:41;102643.84;;;9.53;100.00
36692;BME280;22678;52.052;4.242;2024-01-30T10:17:11;102639.34;;;9.49;100.00
36692;BME280;22678;52.052;4.242;2024-01-30T10:19:38;102651.50;;;9.44;100.00
36692;BME280;22678;52.052;4.242;2024-01-30T10:22:04;102654.94;;;9.41;100.00
36692;BME280;22678;52.052;4.242;2024-01-30T10:24:29;102631.13;;;9.34;100.00
36692;BME280;22678;52.052;4.242;2024-01-30T10:26:55;102659.13;;;9.35;100.00
36692;BME280;22678;52.052;4.242;2024-01-30T10:29:21;102663.53;;;9.36;100.00
36692;BME280;22678;52.052;4.242;2024-01-30T10:32:06;102664.38;;;9.35;100.00
36692;BME280;22678;52.052;4.242;2024-01-30T10:34:31;102662.63;;;9.34;100.00
36692;BME280;22678;52.052;4.242;2024-01-30T10:37:07;102672.13;;;9.30;100.00
36692;BME280;22678;52.052;4.242;2024-01-30T10:39:36;102646.59;;;9.24;100.00
36692;BME280;22678;52.052;4.242;2024-01-30T10:42:05;102665.84;;;9.23;100.00
36692;BME280;22678;52.052;4.242;2024-01-30T10:44:43;102665.41;;;9.08;100.00
36692;BME280;22678;52.052;4.242;2024-01-30T10:47:12;102661.16;;;9.11;100.00
36692;BME280;22678;52.052;4.242;2024-01-30T10:49:41;102672.47;;;9.09;100.00
36692;BME280;22678;52.052;4.242;2024-01-30T10:52:08;102675.91;;;9.08;100.00
36692;BME280;22678;52.052;4.242;2024-01-30T10:54:34;102679.41;;;9.07;100.00
36692;BME280;22678;52.052;4.242;2024-01-30T10:57:01;102666.97;;;9.00;100.00
36692;BME280;22678;52.052;4.242;2024-01-30T10:59:30;102655.34;;;8.91;100.00
36692;BME280;22678;52.052;4.242;2024-01-30T11:01:58;102664.94;;;8.89;100.00
36692;BME280;22678;52.052;4.242;2024-01-30T11:04:24;102673.75;;;8.93;100.00
36692;BME280;22678;52.052;4.242;2024-01-30T11:06:50;102671.19;;;8.94;100.00
36692;BME280;22678;52.052;4.242;2024-01-30T11:09:17;102672.22;;;9.00;100.00
36692;BME280;22678;52.052;4.242;2024-01-30T11:11:59;102658.91;;;8.93;100.00
36692;BME280;22678;52.052;4.242;2024-01-30T11:14:29;102680.28;;;9.07;100.00
36692;BME280;22678;52.052;4.242;2024-01-30T11:16:58;102658.22;;;9.01;100.00
36692;BME280;22678;52.052;4.242;2024-01-30T11:19:25;102667.22;;;9.09;100.00
36692;BME280;22678;52.052;4.242;2024-01-30T11:21:52;102669.88;;;9.10;100.00
36692;BME280;22678;52.052;4.242;2024-01-30T11:24:25;102683.94;;;9.14;100.00
36692;BME280;22678;52.052;4.242;2024-01-30T11:26:56;102683.13;;;9.15;100.00
36692;BME280;22678;52.052;4.242;2024-01-30T11:29:28;102685.78;;;9.17;100.00
36692;BME280;22678;52.052;4.242;2024-01-30T11:31:55;102689.34;;;9.19;99.94
36692;BME280;22678;52.052;4.242;2024-01-30T11:34:22;102675.38;;;9.20;99.90
36692;BME280;22678;52.052;4.242;2024-01-30T11:37:03;102684.97;;;9.19;98.66
36692;BME280;22678;52.052;4.242;2024-01-30T11:39:31;102679.63;;;9.15;98.31
36692;BME280;22678;52.052;4.242;2024-01-30T11:41:58;102690.06;;;9.13;98.75
36692;BME280;22678;52.052;4.242;2024-01-30T11:44:23;102690.03;;;9.11;99.06
36692;BME280;22678;52.052;4.242;2024-01-30T11:46:50;102701.50;;;9.15;98.93
36692;BME280;22678;52.052;4.242;2024-01-30T11:49:18;102698.06;;;9.18;98.97
36692;BME280;22678;52.052;4.242;2024-01-30T11:51:47;102691.97;;;9.19;98.44
36692;BME280;22678;52.052;4.242;2024-01-30T11:54:15;102667.13;;;9.06;97.97
36692;BME280;22678;52.052;4.242;2024-01-30T11:56:42;102686.78;;;9.20;97.64
36692;BME280;22678;52.052;4.242;2024-01-30T11:59:08;102684.97;;;9.19;97.89
36692;BME280;22678;52.052;4.242;2024-01-30T12:01:33;102698.78;;;9.12;97.78
36692;BME280;22678;52.052;4.242;2024-01-30T12:03:59;102707.06;;;9.27;96.42
36692;BME280;22678;52.052;4.242;2024-01-30T12:06:25;102707.94;;;9.26;96.44
36692;BME280;22678;52.052;4.242;2024-01-30T12:09:02;102711.31;;;9.22;96.67
36692;BME280;22678;52.052;4.242;2024-01-30T12:11:31;102710.25;;;9.16;96.97
36692;BME280;22678;52.052;4.242;2024-01-30T12:13:56;102710.25;;;9.16;97.60
36692;BME280;22678;52.052;4.242;2024-01-30T12:16:22;102710.19;;;9.14;97.67
36692;BME280;22678;52.052;4.242;2024-01-30T12:18:48;102722.56;;;9.18;97.58
36692;BME280;22678;52.052;4.242;2024-01-30T12:21:16;102703.06;;;9.08;97.54
36692;BME280;22678;52.052;4.242;2024-01-30T12:23:43;102719.94;;;9.18;97.67
36692;BME280;22678;52.052;4.242;2024-01-30T12:26:08;102725.19;;;9.18;98.08
36692;BME280;22678;52.052;4.242;2024-01-30T12:28:34;102723.44;;;9.17;98.44
36692;BME280;22678;52.052;4.242;2024-01-30T12:31:03;102730.44;;;9.18;98.52
36692;BME280;22678;52.052;4.242;2024-01-30T12:33:32;102713.69;;;9.13;99.06
36692;BME280;22678;52.052;4.242;2024-01-30T12:36:01;102725.16;;;9.17;99.59
36692;BME280;22678;52.052;4.242;2024-01-30T12:38:27;102728.56;;;9.14;99.94
36692;BME280;22678;52.052;4.242;2024-01-30T12:40:56;102737.25;;;9.10;100.00
36692;BME280;22678;52.052;4.242;2024-01-30T12:43:22;102725.53;;;8.99;100.00
36692;BME280;22678;52.052;4.242;2024-01-30T12:45:48;102728.06;;;8.96;100.00